This is the latest recevied weather packets stored in our database for station/object HI3LT-13. If no packets are shown the sender has not sent any weather packets the latest 10 day(s).
| Time | Temp. | Humidity | Pressure | Rain* | Wind** | Luminosity | Snow |
|---|---|---|---|---|---|---|---|
| 1788050605 | 28.33° C | 77% | 1015 hPa | 0 mm | - | - | - |
| 1788050005 | 28.89° C | 75% | 1015 hPa | 0 mm | - | - | - |
| 1788049404 | 28.89° C | 75% | 1015 hPa | 0 mm | - | - | - |
| 1788048804 | 29.44° C | 73% | 1015 hPa | 0 mm | - | - | - |
| 1788048203 | 29.44° C | 73% | 1015 hPa | 0 mm | - | - | - |
| 1788047602 | 29.44° C | 73% | 1015 hPa | 0 mm | - | - | - |
| 1788047002 | 29.44° C | 72% | 1015 hPa | 0 mm | - | - | - |
| 1788046401 | 29.44° C | 72% | 1015 hPa | 0 mm | - | - | - |
| 1788045801 | 30° C | 71% | 1014 hPa | 0 mm | - | - | - |
| 1788045200 | 30.56° C | 66% | 1014 hPa | 0 mm | - | - | - |
| 1788044599 | 30.56° C | 66% | 1014 hPa | 0 mm | - | - | - |
| 1788043999 | 31.11° C | 65% | 1014 hPa | 0 mm | - | - | - |
| 1788043398 | 31.11° C | 64% | 1014 hPa | 0 mm | - | - | - |
| 1788042797 | 31.67° C | 62% | 1014 hPa | 0 mm | - | - | - |
| 1788042197 | 32.78° C | 56% | 1013 hPa | 0 mm | - | - | - |
| 1788041596 | 32.78° C | 56% | 1013 hPa | 0 mm | - | - | - |
| 1788040996 | 32.22° C | 58% | 1013 hPa | 0 mm | - | - | - |
| 1788040395 | 32.22° C | 57% | 1013 hPa | 0 mm | - | - | - |
| 1788039795 | 32.78° C | 56% | 1013 hPa | 0 mm | - | - | - |
| 1788039204 | 32.78° C | 56% | 1013 hPa | 0 mm | - | - | - |
| 1788038593 | 33.89° C | 51% | 1013 hPa | 0 mm | - | - | - |
| 1788037993 | 34.44° C | 50% | 1013 hPa | 0 mm | - | - | - |
| 1788037392 | 33.89° C | 55% | 1013 hPa | 0 mm | - | - | - |
| 1788036792 | 33.89° C | 55% | 1013 hPa | 0 mm | - | - | - |
| 1788036191 | 33.89° C | 55% | 1013 hPa | 0 mm | - | - | - |
* Rain latest hour (hover to see other rain measurements)
** Current wind speed in m/s (hover to see current wind gust speed)